sensor_id;sensor_type;location;lat;lon;timestamp;pressure;altitude;pressure_sealevel;temperature;humidity
11542;BME280;5827;49.482;7.716;2022-11-09T00:01:15;98324.03;;;14.22;100.00
11542;BME280;5827;49.482;7.716;2022-11-09T00:03:16;98309.75;;;14.27;100.00
11542;BME280;5827;49.482;7.716;2022-11-09T00:05:18;98299.28;;;14.20;100.00
11542;BME280;5827;49.482;7.716;2022-11-09T00:07:19;98291.25;;;14.05;100.00
11542;BME280;5827;49.482;7.716;2022-11-09T00:09:21;98285.66;;;13.96;100.00
11542;BME280;5827;49.482;7.716;2022-11-09T00:11:23;98292.88;;;14.11;100.00
11542;BME280;5827;49.482;7.716;2022-11-09T00:13:25;98276.78;;;13.91;100.00
11542;BME280;5827;49.482;7.716;2022-11-09T00:15:27;98268.22;;;13.84;100.00
11542;BME280;5827;49.482;7.716;2022-11-09T00:17:30;98268.91;;;14.05;100.00
11542;BME280;5827;49.482;7.716;2022-11-09T00:19:31;98271.06;;;14.08;100.00
11542;BME280;5827;49.482;7.716;2022-11-09T00:21:33;98283.44;;;14.09;100.00
11542;BME280;5827;49.482;7.716;2022-11-09T00:23:34;98284.25;;;14.09;100.00
11542;BME280;5827;49.482;7.716;2022-11-09T00:25:36;98313.63;;;14.06;100.00
11542;BME280;5827;49.482;7.716;2022-11-09T00:27:38;98311.78;;;13.96;100.00
11542;BME280;5827;49.482;7.716;2022-11-09T00:29:39;98327.94;;;13.96;100.00
11542;BME280;5827;49.482;7.716;2022-11-09T00:31:40;98340.88;;;13.99;100.00
11542;BME280;5827;49.482;7.716;2022-11-09T00:33:46;98343.03;;;13.92;100.00
11542;BME280;5827;49.482;7.716;2022-11-09T00:35:48;98352.97;;;13.96;100.00
11542;BME280;5827;49.482;7.716;2022-11-09T00:37:49;98353.56;;;13.93;100.00
11542;BME280;5827;49.482;7.716;2022-11-09T00:39:51;98362.47;;;13.84;100.00
11542;BME280;5827;49.482;7.716;2022-11-09T00:41:52;98371.59;;;13.93;100.00
11542;BME280;5827;49.482;7.716;2022-11-09T00:43:54;98369.97;;;13.92;100.00
11542;BME280;5827;49.482;7.716;2022-11-09T00:45:56;98376.16;;;13.97;100.00
11542;BME280;5827;49.482;7.716;2022-11-09T00:47:57;98376.47;;;13.81;100.00
11542;BME280;5827;49.482;7.716;2022-11-09T00:50:00;98378.28;;;14.01;100.00
11542;BME280;5827;49.482;7.716;2022-11-09T00:52:02;98375.34;;;14.02;100.00
11542;BME280;5827;49.482;7.716;2022-11-09T00:54:04;98373.69;;;14.11;100.00
11542;BME280;5827;49.482;7.716;2022-11-09T00:56:09;98365.09;;;14.04;100.00
11542;BME280;5827;49.482;7.716;2022-11-09T00:58:11;98373.94;;;14.10;100.00
11542;BME280;5827;49.482;7.716;2022-11-09T01:00:15;98372.88;;;14.16;100.00
11542;BME280;5827;49.482;7.716;2022-11-09T01:02:16;98380.41;;;14.14;100.00
11542;BME280;5827;49.482;7.716;2022-11-09T01:04:18;98382.25;;;14.18;100.00
11542;BME280;5827;49.482;7.716;2022-11-09T01:06:23;98383.84;;;14.24;100.00
11542;BME280;5827;49.482;7.716;2022-11-09T01:08:25;98379.56;;;14.18;100.00
11542;BME280;5827;49.482;7.716;2022-11-09T01:10:26;98380.94;;;14.16;100.00
11542;BME280;5827;49.482;7.716;2022-11-09T01:12:28;98378.22;;;14.21;100.00
11542;BME280;5827;49.482;7.716;2022-11-09T01:14:29;98375.81;;;14.14;100.00
11542;BME280;5827;49.482;7.716;2022-11-09T01:16:31;98373.69;;;14.11;100.00
11542;BME280;5827;49.482;7.716;2022-11-09T01:18:33;98376.38;;;14.11;100.00
11542;BME280;5827;49.482;7.716;2022-11-09T01:20:37;98375.78;;;14.19;100.00
11542;BME280;5827;49.482;7.716;2022-11-09T01:22:41;98379.81;;;14.22;100.00
11542;BME280;5827;49.482;7.716;2022-11-09T01:24:43;98375.00;;;14.14;100.00
11542;BME280;5827;49.482;7.716;2022-11-09T01:26:44;98372.00;;;14.26;100.00
11542;BME280;5827;49.482;7.716;2022-11-09T01:28:46;98376.06;;;14.18;100.00
11542;BME280;5827;49.482;7.716;2022-11-09T01:30:47;98373.09;;;14.19;100.00
11542;BME280;5827;49.482;7.716;2022-11-09T01:32:49;98369.34;;;14.10;100.00
11542;BME280;5827;49.482;7.716;2022-11-09T01:34:50;98363.13;;;14.15;100.00
11542;BME280;5827;49.482;7.716;2022-11-09T01:36:52;98364.78;;;14.16;100.00
11542;BME280;5827;49.482;7.716;2022-11-09T01:38:55;98363.41;;;14.18;100.00
11542;BME280;5827;49.482;7.716;2022-11-09T01:40:56;98358.31;;;14.17;100.00
11542;BME280;5827;49.482;7.716;2022-11-09T01:42:58;98349.41;;;14.16;100.00
11542;BME280;5827;49.482;7.716;2022-11-09T01:45:24;98345.72;;;14.02;100.00
11542;BME280;5827;49.482;7.716;2022-11-09T01:47:26;98332.91;;;14.28;100.00
11542;BME280;5827;49.482;7.716;2022-11-09T01:49:36;98331.94;;;14.04;100.00
11542;BME280;5827;49.482;7.716;2022-11-09T01:51:43;98326.19;;;14.26;100.00
11542;BME280;5827;49.482;7.716;2022-11-09T01:53:48;98325.16;;;14.16;100.00
11542;BME280;5827;49.482;7.716;2022-11-09T01:55:55;98329.72;;;14.21;100.00
11542;BME280;5827;49.482;7.716;2022-11-09T01:58:00;98327.41;;;13.99;100.00
11542;BME280;5827;49.482;7.716;2022-11-09T02:00:06;98319.03;;;14.01;100.00
11542;BME280;5827;49.482;7.716;2022-11-09T02:02:09;98310.66;;;14.07;100.00
11542;BME280;5827;49.482;7.716;2022-11-09T02:04:13;98309.09;;;13.96;100.00
11542;BME280;5827;49.482;7.716;2022-11-09T02:06:18;98303.63;;;14.06;100.00
11542;BME280;5827;49.482;7.716;2022-11-09T02:08:22;98292.41;;;13.94;100.00
11542;BME280;5827;49.482;7.716;2022-11-09T02:10:28;98291.03;;;13.96;100.00
11542;BME280;5827;49.482;7.716;2022-11-09T02:12:34;98292.94;;;13.91;100.00
11542;BME280;5827;49.482;7.716;2022-11-09T02:14:36;98292.13;;;13.95;100.00
11542;BME280;5827;49.482;7.716;2022-11-09T02:16:40;98290.22;;;13.96;100.00
11542;BME280;5827;49.482;7.716;2022-11-09T02:18:47;98292.13;;;13.95;100.00
11542;BME280;5827;49.482;7.716;2022-11-09T02:20:53;98290.22;;;13.96;100.00
11542;BME280;5827;49.482;7.716;2022-11-09T02:22:55;98288.09;;;13.98;100.00
11542;BME280;5827;49.482;7.716;2022-11-09T02:24:57;98270.34;;;13.87;100.00
11542;BME280;5827;49.482;7.716;2022-11-09T02:26:58;98266.31;;;13.89;100.00
11542;BME280;5827;49.482;7.716;2022-11-09T02:29:02;98248.81;;;13.82;100.00
11542;BME280;5827;49.482;7.716;2022-11-09T02:31:07;98240.25;;;13.75;100.00
11542;BME280;5827;49.482;7.716;2022-11-09T02:33:09;98233.94;;;13.40;100.00
11542;BME280;5827;49.482;7.716;2022-11-09T02:35:11;98230.09;;;13.61;100.00
11542;BME280;5827;49.482;7.716;2022-11-09T02:37:24;98225.97;;;13.74;100.00
11542;BME280;5827;49.482;7.716;2022-11-09T02:39:26;98235.44;;;13.66;100.00
11542;BME280;5827;49.482;7.716;2022-11-09T02:41:29;98240.25;;;13.75;100.00
11542;BME280;5827;49.482;7.716;2022-11-09T02:43:33;98246.13;;;13.82;100.00
11542;BME280;5827;49.482;7.716;2022-11-09T02:45:35;98245.88;;;13.78;100.00
11542;BME280;5827;49.482;7.716;2022-11-09T02:47:36;98249.63;;;13.82;100.00
11542;BME280;5827;49.482;7.716;2022-11-09T02:49:38;98263.75;;;13.59;100.00
11542;BME280;5827;49.482;7.716;2022-11-09T02:51:39;98261.09;;;13.48;100.00
11542;BME280;5827;49.482;7.716;2022-11-09T02:53:42;98262.94;;;13.58;100.00
11542;BME280;5827;49.482;7.716;2022-11-09T02:55:43;98275.84;;;13.66;100.00
11542;BME280;5827;49.482;7.716;2022-11-09T02:57:45;98286.34;;;13.63;100.00
11542;BME280;5827;49.482;7.716;2022-11-09T02:59:46;98281.22;;;13.66;100.00
11542;BME280;5827;49.482;7.716;2022-11-09T03:01:48;98286.03;;;13.69;100.00
11542;BME280;5827;49.482;7.716;2022-11-09T03:03:49;98288.50;;;13.66;100.00
11542;BME280;5827;49.482;7.716;2022-11-09T03:08:49;98293.06;;;13.70;100.00
11542;BME280;5827;49.482;7.716;2022-11-09T03:10:51;98294.09;;;13.69;100.00
11542;BME280;5827;49.482;7.716;2022-11-09T03:12:53;98303.25;;;13.73;100.00
11542;BME280;5827;49.482;7.716;2022-11-09T03:14:55;98298.41;;;13.76;100.00
11542;BME280;5827;49.482;7.716;2022-11-09T03:16:56;98306.47;;;13.81;100.00
11542;BME280;5827;49.482;7.716;2022-11-09T03:18:58;98305.91;;;13.79;100.00
11542;BME280;5827;49.482;7.716;2022-11-09T03:21:01;98304.91;;;13.64;100.00
11542;BME280;5827;49.482;7.716;2022-11-09T03:23:03;98301.16;;;13.65;100.00
11542;BME280;5827;49.482;7.716;2022-11-09T03:25:07;98312.13;;;13.74;100.00
11542;BME280;5827;49.482;7.716;2022-11-09T03:27:09;98303.00;;;13.75;100.00
11542;BME280;5827;49.482;7.716;2022-11-09T03:29:10;98305.69;;;13.65;100.00
11542;BME280;5827;49.482;7.716;2022-11-09T03:31:13;98302.19;;;13.69;100.00
11542;BME280;5827;49.482;7.716;2022-11-09T03:33:14;98307.84;;;13.73;100.00
11542;BME280;5827;49.482;7.716;2022-11-09T03:35:16;98308.41;;;13.65;100.00
11542;BME280;5827;49.482;7.716;2022-11-09T03:37:17;98305.13;;;13.73;100.00
11542;BME280;5827;49.482;7.716;2022-11-09T03:39:19;98310.53;;;13.73;100.00
11542;BME280;5827;49.482;7.716;2022-11-09T03:41:22;98297.91;;;13.63;100.00
11542;BME280;5827;49.482;7.716;2022-11-09T03:43:23;98304.34;;;13.72;100.00
11542;BME280;5827;49.482;7.716;2022-11-09T03:45:25;98306.78;;;13.64;100.00
11542;BME280;5827;49.482;7.716;2022-11-09T03:47:28;98302.19;;;13.75;100.00
11542;BME280;5827;49.482;7.716;2022-11-09T03:49:29;98299.44;;;13.85;100.00
11542;BME280;5827;49.482;7.716;2022-11-09T03:51:31;98303.78;;;13.76;100.00
11542;BME280;5827;49.482;7.716;2022-11-09T03:53:32;98308.06;;;13.82;100.00
11542;BME280;5827;49.482;7.716;2022-11-09T03:55:34;98305.09;;;13.88;100.00
11542;BME280;5827;49.482;7.716;2022-11-09T03:57:37;98295.66;;;13.91;100.00
11542;BME280;5827;49.482;7.716;2022-11-09T03:59:39;98293.78;;;13.86;100.00
11542;BME280;5827;49.482;7.716;2022-11-09T04:01:40;98290.25;;;13.91;100.00
11542;BME280;5827;49.482;7.716;2022-11-09T04:03:42;98309.41;;;13.89;100.00
11542;BME280;5827;49.482;7.716;2022-11-09T04:05:43;98311.53;;;13.87;100.00
11542;BME280;5827;49.482;7.716;2022-11-09T04:07:46;98312.34;;;13.88;100.00
11542;BME280;5827;49.482;7.716;2022-11-09T04:09:48;98322.91;;;13.74;100.00
11542;BME280;5827;49.482;7.716;2022-11-09T04:11:50;98320.72;;;13.81;100.00
11542;BME280;5827;49.482;7.716;2022-11-09T04:13:52;98321.56;;;13.77;100.00
11542;BME280;5827;49.482;7.716;2022-11-09T04:15:54;98313.75;;;13.80;100.00
11542;BME280;5827;49.482;7.716;2022-11-09T04:17:56;98305.69;;;13.75;100.00
11542;BME280;5827;49.482;7.716;2022-11-09T04:19:58;98306.75;;;13.74;100.00
11542;BME280;5827;49.482;7.716;2022-11-09T04:22:01;98313.19;;;13.78;100.00
11542;BME280;5827;49.482;7.716;2022-11-09T04:24:03;98318.09;;;13.71;100.00
11542;BME280;5827;49.482;7.716;2022-11-09T04:26:04;98316.72;;;13.68;100.00
11542;BME280;5827;49.482;7.716;2022-11-09T04:28:08;98322.94;;;13.64;100.00
11542;BME280;5827;49.482;7.716;2022-11-09T04:30:12;98321.09;;;13.54;100.00
11542;BME280;5827;49.482;7.716;2022-11-09T04:32:13;98325.94;;;13.52;100.00
11542;BME280;5827;49.482;7.716;2022-11-09T04:34:15;98336.13;;;13.60;100.00
11542;BME280;5827;49.482;7.716;2022-11-09T04:36:17;98335.88;;;13.67;100.00
11542;BME280;5827;49.482;7.716;2022-11-09T04:38:18;98331.00;;;13.64;100.00
11542;BME280;5827;49.482;7.716;2022-11-09T04:40:20;98324.28;;;13.71;100.00
11542;BME280;5827;49.482;7.716;2022-11-09T04:42:21;98325.88;;;13.72;100.00
11542;BME280;5827;49.482;7.716;2022-11-09T04:44:23;98324.31;;;13.61;100.00
11542;BME280;5827;49.482;7.716;2022-11-09T04:46:26;98317.31;;;13.65;100.00
11542;BME280;5827;49.482;7.716;2022-11-09T04:48:28;98331.28;;;13.67;100.00
11542;BME280;5827;49.482;7.716;2022-11-09T04:50:30;98331.28;;;13.67;100.00
11542;BME280;5827;49.482;7.716;2022-11-09T04:52:32;98317.28;;;13.60;100.00
11542;BME280;5827;49.482;7.716;2022-11-09T04:54:33;98312.97;;;13.64;100.00
11542;BME280;5827;49.482;7.716;2022-11-09T04:56:35;98307.06;;;13.62;100.00
11542;BME280;5827;49.482;7.716;2022-11-09T04:58:36;98309.22;;;13.60;100.00
11542;BME280;5827;49.482;7.716;2022-11-09T05:00:38;98308.97;;;13.62;100.00
11542;BME280;5827;49.482;7.716;2022-11-09T05:02:41;98311.38;;;13.58;100.00
11542;BME280;5827;49.482;7.716;2022-11-09T05:04:43;98322.97;;;13.59;100.00
11542;BME280;5827;49.482;7.716;2022-11-09T05:06:44;98310.34;;;13.49;100.00
11542;BME280;5827;49.482;7.716;2022-11-09T05:08:46;98311.13;;;13.55;100.00
11542;BME280;5827;49.482;7.716;2022-11-09T05:10:47;98302.81;;;13.46;100.00
11542;BME280;5827;49.482;7.716;2022-11-09T05:12:49;98308.44;;;13.50;100.00
11542;BME280;5827;49.482;7.716;2022-11-09T05:14:50;98295.25;;;13.53;100.00
11542;BME280;5827;49.482;7.716;2022-11-09T05:16:52;98289.59;;;13.50;100.00
11542;BME280;5827;49.482;7.716;2022-11-09T05:18:55;98294.72;;;13.51;100.00
11542;BME280;5827;49.482;7.716;2022-11-09T05:20:58;98289.84;;;13.63;100.00
11542;BME280;5827;49.482;7.716;2022-11-09T05:23:00;98301.34;;;13.74;100.00
11542;BME280;5827;49.482;7.716;2022-11-09T05:25:19;98311.63;;;13.72;100.00
11542;BME280;5827;49.482;7.716;2022-11-09T05:27:20;98307.59;;;13.64;100.00
11542;BME280;5827;49.482;7.716;2022-11-09T05:29:22;98308.72;;;13.53;100.00
11542;BME280;5827;49.482;7.716;2022-11-09T05:31:24;98324.81;;;13.63;100.00
11542;BME280;5827;49.482;7.716;2022-11-09T05:33:26;98312.47;;;13.62;100.00
11542;BME280;5827;49.482;7.716;2022-11-09T05:35:29;98304.88;;;13.69;100.00
11542;BME280;5827;49.482;7.716;2022-11-09T05:37:34;98307.34;;;13.66;100.00
11542;BME280;5827;49.482;7.716;2022-11-09T05:39:38;98302.97;;;13.80;100.00
11542;BME280;5827;49.482;7.716;2022-11-09T05:41:40;98309.97;;;13.81;100.00
11542;BME280;5827;49.482;7.716;2022-11-09T05:43:42;98310.44;;;13.98;100.00
11542;BME280;5827;49.482;7.716;2022-11-09T05:45:44;98313.63;;;14.01;100.00
11542;BME280;5827;49.482;7.716;2022-11-09T05:47:45;98313.19;;;13.88;100.00
11542;BME280;5827;49.482;7.716;2022-11-09T05:49:47;98308.84;;;13.87;100.00
11542;BME280;5827;49.482;7.716;2022-11-09T05:51:50;98299.97;;;13.87;100.00
11542;BME280;5827;49.482;7.716;2022-11-09T05:53:51;98300.25;;;13.85;100.00
11542;BME280;5827;49.482;7.716;2022-11-09T05:55:53;98296.53;;;13.76;100.00
11542;BME280;5827;49.482;7.716;2022-11-09T05:57:54;98285.19;;;13.84;100.00
11542;BME280;5827;49.482;7.716;2022-11-09T05:59:56;98296.19;;;13.88;100.00
11542;BME280;5827;49.482;7.716;2022-11-09T06:01:57;98284.91;;;13.86;100.00
11542;BME280;5827;49.482;7.716;2022-11-09T06:03:59;98270.91;;;13.79;100.00
11542;BME280;5827;49.482;7.716;2022-11-09T06:06:02;98267.69;;;13.82;100.00
11542;BME280;5827;49.482;7.716;2022-11-09T06:08:06;98271.97;;;13.83;100.00
11542;BME280;5827;49.482;7.716;2022-11-09T06:10:08;98272.25;;;13.86;100.00
11542;BME280;5827;49.482;7.716;2022-11-09T06:12:10;98266.59;;;13.83;100.00
11542;BME280;5827;49.482;7.716;2022-11-09T06:14:11;98259.84;;;13.85;100.00
11542;BME280;5827;49.482;7.716;2022-11-09T06:16:13;98246.44;;;13.80;100.00
11542;BME280;5827;49.482;7.716;2022-11-09T06:18:14;98254.75;;;13.84;100.00
11542;BME280;5827;49.482;7.716;2022-11-09T06:20:16;98252.91;;;13.79;100.00
11542;BME280;5827;49.482;7.716;2022-11-09T06:22:18;98270.38;;;13.82;100.00
11542;BME280;5827;49.482;7.716;2022-11-09T06:24:20;98284.97;;;13.70;100.00
11542;BME280;5827;49.482;7.716;2022-11-09T06:26:22;98283.88;;;13.71;100.00
11542;BME280;5827;49.482;7.716;2022-11-09T06:28:24;98292.75;;;13.72;100.00
11542;BME280;5827;49.482;7.716;2022-11-09T06:30:25;98307.56;;;13.69;100.00
11542;BME280;5827;49.482;7.716;2022-11-09T06:32:27;98300.09;;;13.51;100.00
11542;BME280;5827;49.482;7.716;2022-11-09T06:34:29;98318.09;;;13.66;100.00
11542;BME280;5827;49.482;7.716;2022-11-09T06:36:30;98319.97;;;13.60;100.00
11542;BME280;5827;49.482;7.716;2022-11-09T06:38:32;98317.06;;;13.57;100.00
11542;BME280;5827;49.482;7.716;2022-11-09T06:40:35;98327.78;;;13.67;100.00
11542;BME280;5827;49.482;7.716;2022-11-09T06:42:37;98325.13;;;13.57;100.00
11542;BME280;5827;49.482;7.716;2022-11-09T06:44:38;98322.44;;;13.57;100.00
11542;BME280;5827;49.482;7.716;2022-11-09T06:46:40;98315.19;;;13.52;100.00
11542;BME280;5827;49.482;7.716;2022-11-09T06:48:42;98319.75;;;13.41;100.00
11542;BME280;5827;49.482;7.716;2022-11-09T06:50:44;98327.31;;;13.39;100.00
11542;BME280;5827;49.482;7.716;2022-11-09T06:52:45;98330.78;;;13.45;100.00
11542;BME280;5827;49.482;7.716;2022-11-09T06:54:47;98332.41;;;13.46;100.00
11542;BME280;5827;49.482;7.716;2022-11-09T06:56:52;98333.75;;;13.48;100.00
11542;BME280;5827;49.482;7.716;2022-11-09T06:58:54;98332.66;;;13.50;100.00
11542;BME280;5827;49.482;7.716;2022-11-09T07:00:56;98327.03;;;13.46;100.00
11542;BME280;5827;49.482;7.716;2022-11-09T07:02:57;98334.88;;;13.27;100.00
11542;BME280;5827;49.482;7.716;2022-11-09T07:04:59;98342.38;;;13.35;100.00
11542;BME280;5827;49.482;7.716;2022-11-09T07:07:00;98341.56;;;13.40;100.00
11542;BME280;5827;49.482;7.716;2022-11-09T07:09:02;98344.75;;;13.62;100.00
11542;BME280;5827;49.482;7.716;2022-11-09T07:11:04;98353.41;;;13.49;100.00
11542;BME280;5827;49.482;7.716;2022-11-09T07:13:08;98354.19;;;13.55;100.00
11542;BME280;5827;49.482;7.716;2022-11-09T07:15:11;98359.88;;;13.43;100.00
11542;BME280;5827;49.482;7.716;2022-11-09T07:17:12;98372.22;;;13.59;100.00
11542;BME280;5827;49.482;7.716;2022-11-09T07:19:14;98373.31;;;13.48;100.00
11542;BME280;5827;49.482;7.716;2022-11-09T07:21:15;98375.47;;;13.61;100.00
11542;BME280;5827;49.482;7.716;2022-11-09T07:23:17;98375.69;;;13.65;100.00
11542;BME280;5827;49.482;7.716;2022-11-09T07:25:19;98380.03;;;13.66;100.00
11542;BME280;5827;49.482;7.716;2022-11-09T07:27:22;98391.31;;;13.68;100.00
11542;BME280;5827;49.482;7.716;2022-11-09T07:29:25;98393.19;;;13.67;100.00
11542;BME280;5827;49.482;7.716;2022-11-09T07:31:27;98396.16;;;13.56;100.00
11542;BME280;5827;49.482;7.716;2022-11-09T07:33:30;98408.56;;;13.57;100.00
11542;BME280;5827;49.482;7.716;2022-11-09T07:35:32;98406.16;;;13.50;100.00
11542;BME280;5827;49.482;7.716;2022-11-09T07:37:34;98407.50;;;13.58;100.00
11542;BME280;5827;49.482;7.716;2022-11-09T07:39:36;98402.13;;;13.53;100.00
11542;BME280;5827;49.482;7.716;2022-11-09T07:41:37;98400.22;;;13.58;100.00
11542;BME280;5827;49.482;7.716;2022-11-09T07:43:38;98392.91;;;13.69;100.00
11542;BME280;5827;49.482;7.716;2022-11-09T07:45:41;98396.94;;;13.82;100.00
11542;BME280;5827;49.482;7.716;2022-11-09T07:47:43;98398.88;;;13.66;100.00
11542;BME280;5827;49.482;7.716;2022-11-09T07:49:45;98407.19;;;13.75;100.00
11542;BME280;5827;49.482;7.716;2022-11-09T07:51:46;98413.13;;;13.66;100.00
11542;BME280;5827;49.482;7.716;2022-11-09T07:53:48;98419.03;;;13.73;100.00
11542;BME280;5827;49.482;7.716;2022-11-09T07:55:55;98424.97;;;13.70;100.00
11542;BME280;5827;49.482;7.716;2022-11-09T07:57:58;98432.75;;;13.77;100.00
11542;BME280;5827;49.482;7.716;2022-11-09T08:00:00;98439.78;;;13.68;100.00
11542;BME280;5827;49.482;7.716;2022-11-09T08:02:03;98442.16;;;13.90;100.00
11542;BME280;5827;49.482;7.716;2022-11-09T08:04:04;98442.16;;;13.95;100.00
11542;BME280;5827;49.482;7.716;2022-11-09T08:06:06;98441.63;;;13.78;100.00
11542;BME280;5827;49.482;7.716;2022-11-09T08:08:09;98439.75;;;13.83;100.00
11542;BME280;5827;49.482;7.716;2022-11-09T08:10:11;98448.63;;;13.79;100.00
11542;BME280;5827;49.482;7.716;2022-11-09T08:12:13;98442.16;;;13.90;100.00
11542;BME280;5827;49.482;7.716;2022-11-09T08:14:14;98443.78;;;13.81;100.00
11542;BME280;5827;49.482;7.716;2022-11-09T08:16:16;98440.53;;;13.94;100.00
11542;BME280;5827;49.482;7.716;2022-11-09T08:18:20;98441.59;;;14.03;100.00
11542;BME280;5827;49.482;7.716;2022-11-09T08:20:22;98442.44;;;13.93;100.00
11542;BME280;5827;49.482;7.716;2022-11-09T08:22:23;98439.44;;;14.05;100.00
11542;BME280;5827;49.482;7.716;2022-11-09T08:24:25;98441.03;;;14.06;100.00
11542;BME280;5827;49.482;7.716;2022-11-09T08:26:26;98432.94;;;14.16;100.00
11542;BME280;5827;49.482;7.716;2022-11-09T08:28:28;98432.66;;;14.18;100.00
11542;BME280;5827;49.482;7.716;2022-11-09T08:30:30;98435.06;;;14.19;100.00
11542;BME280;5827;49.482;7.716;2022-11-09T08:32:32;98438.03;;;14.18;100.00
11542;BME280;5827;49.482;7.716;2022-11-09T08:34:34;98430.22;;;14.21;100.00
11542;BME280;5827;49.482;7.716;2022-11-09T08:36:36;98428.88;;;14.19;100.00
11542;BME280;5827;49.482;7.716;2022-11-09T08:38:38;98425.94;;;14.10;100.00
11542;BME280;5827;49.482;7.716;2022-11-09T08:40:39;98433.78;;;14.07;100.00
11542;BME280;5827;49.482;7.716;2022-11-09T08:42:41;98439.34;;;14.31;100.00
11542;BME280;5827;49.482;7.716;2022-11-09T08:44:42;98440.19;;;14.26;100.00
11542;BME280;5827;49.482;7.716;2022-11-09T08:46:44;98446.34;;;14.32;100.00
11542;BME280;5827;49.482;7.716;2022-11-09T08:48:45;98458.44;;;14.44;100.00
11542;BME280;5827;49.482;7.716;2022-11-09T08:50:52;98461.97;;;14.35;100.00
11542;BME280;5827;49.482;7.716;2022-11-09T08:52:54;98459.28;;;14.35;100.00
11542;BME280;5827;49.482;7.716;2022-11-09T08:54:56;98461.94;;;14.45;100.00
11542;BME280;5827;49.482;7.716;2022-11-09T08:56:57;98458.47;;;14.39;100.00
11542;BME280;5827;49.482;7.716;2022-11-09T08:58:59;98457.63;;;14.44;100.00
11542;BME280;5827;49.482;7.716;2022-11-09T09:01:00;98461.41;;;14.53;100.00
11542;BME280;5827;49.482;7.716;2022-11-09T09:03:06;98462.97;;;14.59;100.00
11542;BME280;5827;49.482;7.716;2022-11-09T09:05:07;98459.97;;;14.66;100.00
11542;BME280;5827;49.482;7.716;2022-11-09T09:07:12;98457.59;;;14.59;100.00
11542;BME280;5827;49.482;7.716;2022-11-09T09:09:13;98461.63;;;14.62;100.00
11542;BME280;5827;49.482;7.716;2022-11-09T09:11:15;98457.63;;;14.49;100.00
11542;BME280;5827;49.482;7.716;2022-11-09T09:13:17;98464.84;;;14.64;100.00
11542;BME280;5827;49.482;7.716;2022-11-09T09:15:21;98459.94;;;14.76;100.00
11542;BME280;5827;49.482;7.716;2022-11-09T09:17:23;98457.47;;;14.85;100.00
11542;BME280;5827;49.482;7.716;2022-11-09T09:19:25;98471.44;;;14.92;100.00
11542;BME280;5827;49.482;7.716;2022-11-09T09:21:27;98469.88;;;14.81;100.00
11542;BME280;5827;49.482;7.716;2022-11-09T09:23:29;98465.56;;;14.80;100.00
11542;BME280;5827;49.482;7.716;2022-11-09T09:25:31;98462.91;;;14.69;100.00
11542;BME280;5827;49.482;7.716;2022-11-09T09:27:33;98472.31;;;14.77;100.00
11542;BME280;5827;49.482;7.716;2022-11-09T09:29:34;98476.16;;;14.71;100.00
11542;BME280;5827;49.482;7.716;2022-11-09T09:31:36;98468.41;;;14.44;100.00
11542;BME280;5827;49.482;7.716;2022-11-09T09:33:38;98473.25;;;14.52;100.00
11542;BME280;5827;49.482;7.716;2022-11-09T09:35:39;98477.81;;;14.46;100.00
11542;BME280;5827;49.482;7.716;2022-11-09T09:37:41;98479.63;;;14.77;100.00
11542;BME280;5827;49.482;7.716;2022-11-09T09:39:44;98476.63;;;14.78;100.00
11542;BME280;5827;49.482;7.716;2022-11-09T09:41:50;98472.09;;;14.68;100.00
11542;BME280;5827;49.482;7.716;2022-11-09T09:43:54;98483.91;;;14.78;100.00
11542;BME280;5827;49.482;7.716;2022-11-09T09:45:58;98486.34;;;14.79;100.00
11542;BME280;5827;49.482;7.716;2022-11-09T09:48:07;98485.97;;;14.96;100.00
11542;BME280;5827;49.482;7.716;2022-11-09T09:50:17;98477.56;;;15.08;100.00
11542;BME280;5827;49.482;7.716;2022-11-09T09:52:24;98476.50;;;15.04;100.00
11542;BME280;5827;49.482;7.716;2022-11-09T09:54:34;98478.88;;;15.10;100.00
11542;BME280;5827;49.482;7.716;2022-11-09T09:56:41;98481.03;;;15.13;100.00
11542;BME280;5827;49.482;7.716;2022-11-09T09:58:47;98488.91;;;15.05;100.00
11542;BME280;5827;49.482;7.716;2022-11-09T10:00:51;98494.00;;;15.06;100.00
11542;BME280;5827;49.482;7.716;2022-11-09T10:02:55;98489.38;;;15.17;100.00
11542;BME280;5827;49.482;7.716;2022-11-09T10:04:59;98485.84;;;15.16;100.00
11542;BME280;5827;49.482;7.716;2022-11-09T10:07:09;98486.97;;;15.10;100.00
11542;BME280;5827;49.482;7.716;2022-11-09T10:09:24;98492.59;;;15.19;100.00
11542;BME280;5827;49.482;7.716;2022-11-09T10:11:33;98496.44;;;15.03;100.00
11542;BME280;5827;49.482;7.716;2022-11-09T10:13:46;98500.00;;;14.93;100.00
11542;BME280;5827;49.482;7.716;2022-11-09T10:15:53;98495.38;;;15.04;100.00
11542;BME280;5827;49.482;7.716;2022-11-09T10:18:17;98494.38;;;14.94;100.00
11542;BME280;5827;49.482;7.716;2022-11-09T10:20:31;98494.81;;;15.07;100.00
11542;BME280;5827;49.482;7.716;2022-11-09T10:22:40;98490.72;;;15.14;100.00
11542;BME280;5827;49.482;7.716;2022-11-09T10:24:51;98489.84;;;15.24;100.00
11542;BME280;5827;49.482;7.716;2022-11-09T10:26:57;98482.56;;;15.24;100.00
11542;BME280;5827;49.482;7.716;2022-11-09T10:29:01;98490.88;;;15.33;100.00
11542;BME280;5827;49.482;7.716;2022-11-09T10:31:14;98497.31;;;15.37;100.00
11542;BME280;5827;49.482;7.716;2022-11-09T10:33:18;98492.03;;;15.56;100.00
11542;BME280;5827;49.482;7.716;2022-11-09T10:35:23;98494.50;;;15.52;100.00
11542;BME280;5827;49.482;7.716;2022-11-09T10:37:32;98501.50;;;15.59;100.00
11542;BME280;5827;49.482;7.716;2022-11-09T10:39:39;98494.50;;;15.52;100.00
11542;BME280;5827;49.482;7.716;2022-11-09T10:41:43;98507.16;;;15.57;100.00
11542;BME280;5827;49.482;7.716;2022-11-09T10:43:46;98504.41;;;15.62;100.00
11542;BME280;5827;49.482;7.716;2022-11-09T10:45:58;98504.69;;;15.61;100.00
11542;BME280;5827;49.482;7.716;2022-11-09T10:48:01;98510.13;;;15.56;100.00
11542;BME280;5827;49.482;7.716;2022-11-09T10:50:06;98509.63;;;15.48;100.00
11542;BME280;5827;49.482;7.716;2022-11-09T10:52:30;98511.50;;;15.53;100.00
11542;BME280;5827;49.482;7.716;2022-11-09T10:54:38;98503.38;;;15.58;100.00